This is the latest recevied weather packets stored in our database for station/object WC4PEM. If no packets are shown the sender has not sent any weather packets the latest 10 day(s).
| Time | Temp. | Humidity | Pressure | Rain* | Wind** | Luminosity | Snow |
|---|---|---|---|---|---|---|---|
| 1777419585 | 27.22° C | 65% | 1016.7 hPa | 0 mm | - | - | - |
| 1777419285 | 27.22° C | 65% | 1016.6 hPa | 0 mm | - | - | - |
| 1777418985 | 27.78° C | 65% | 1016.6 hPa | 0 mm | - | - | - |
| 1777418836 | 27.78° C | 65% | 1016.6 hPa | 0 mm | - | - | - |
| 1777418685 | 27.78° C | 65% | 1016.6 hPa | 0 mm | - | - | - |
| 1777418385 | 27.78° C | 65% | 1016.5 hPa | 0 mm | - | - | - |
| 1777418085 | 27.78° C | 64% | 1016.4 hPa | 0 mm | - | - | - |
| 1777417819 | 28.33° C | 63% | 1016.4 hPa | 0 mm | - | - | - |
| 1777417785 | 28.33° C | 63% | 1016.4 hPa | 0 mm | - | - | - |
| 1777417680 | 28.33° C | 63% | 1016.4 hPa | 0 mm | - | - | - |
| 1777417485 | 28.33° C | 63% | 1016.4 hPa | 0 mm | - | - | - |
| 1777417185 | 28.33° C | 63% | 1016.4 hPa | 0 mm | - | - | - |
| 1777417093 | 28.33° C | 63% | 1016.4 hPa | 0 mm | - | - | - |
| 1777416885 | 28.33° C | 63% | 1016.4 hPa | 0 mm | - | - | - |
| 1777416585 | 28.89° C | 62% | 1016.5 hPa | 0 mm | - | - | - |
| 1777416285 | 28.89° C | 61% | 1016.6 hPa | 0 mm | - | - | - |
| 1777416209 | 28.89° C | 61% | 1016.3 hPa | 0 mm | - | - | - |
| 1777415985 | 28.89° C | 61% | 1016.3 hPa | 0 mm | - | - | - |
| 1777415685 | 28.89° C | 60% | 1016.3 hPa | 0 mm | - | - | - |
| 1777415512 | 29.44° C | 59% | 1016.3 hPa | 0 mm | - | - | - |
| 1777415385 | 29.44° C | 59% | 1016.3 hPa | 0 mm | - | - | - |
| 1777415213 | 29.44° C | 59% | 1016.2 hPa | 0 mm | - | - | - |
| 1777415085 | 29.44° C | 59% | 1016.2 hPa | 0 mm | - | - | - |
| 1777414907 | 31.67° C | 50% | 1015.9 hPa | 0 mm | - | - | - |
| 1777414785 | 30° C | 57% | 1016.1 hPa | 0 mm | - | - | - |
* Rain latest hour (hover to see other rain measurements)
** Current wind speed in m/s (hover to see current wind gust speed)